sensor_id;sensor_type;location;lat;lon;timestamp;P1;durP1;ratioP1;P2;durP2;ratioP2
61473;SDS011;53694;49.784;30.150;2022-08-21T00:00:59;24.41;;;8.07;;
61473;SDS011;53694;49.784;30.150;2022-08-21T00:02:04;19.77;;;7.15;;
61473;SDS011;53694;49.784;30.150;2022-08-21T00:03:08;25.75;;;7.47;;
61473;SDS011;53694;49.784;30.150;2022-08-21T00:04:11;19.42;;;6.46;;
61473;SDS011;53694;49.784;30.150;2022-08-21T00:05:14;22.81;;;6.80;;
61473;SDS011;53694;49.784;30.150;2022-08-21T00:06:16;19.30;;;6.74;;
61473;SDS011;53694;49.784;30.150;2022-08-21T00:07:19;18.42;;;6.79;;
61473;SDS011;53694;49.784;30.150;2022-08-21T00:08:22;23.32;;;7.43;;
61473;SDS011;53694;49.784;30.150;2022-08-21T00:09:23;27.59;;;7.59;;
61473;SDS011;53694;49.784;30.150;2022-08-21T00:10:26;17.76;;;6.71;;
61473;SDS011;53694;49.784;30.150;2022-08-21T00:11:28;23.84;;;6.69;;
61473;SDS011;53694;49.784;30.150;2022-08-21T00:12:30;25.51;;;7.46;;
61473;SDS011;53694;49.784;30.150;2022-08-21T00:13:32;19.41;;;6.51;;
61473;SDS011;53694;49.784;30.150;2022-08-21T00:14:34;21.91;;;7.42;;
61473;SDS011;53694;49.784;30.150;2022-08-21T00:15:36;26.10;;;8.36;;
61473;SDS011;53694;49.784;30.150;2022-08-21T00:16:40;21.68;;;7.52;;
61473;SDS011;53694;49.784;30.150;2022-08-21T00:17:42;17.84;;;8.33;;
61473;SDS011;53694;49.784;30.150;2022-08-21T00:18:44;25.29;;;9.61;;
61473;SDS011;53694;49.784;30.150;2022-08-21T00:19:45;27.09;;;9.67;;
61473;SDS011;53694;49.784;30.150;2022-08-21T00:20:47;30.05;;;10.68;;
61473;SDS011;53694;49.784;30.150;2022-08-21T00:21:49;23.43;;;11.31;;
61473;SDS011;53694;49.784;30.150;2022-08-21T00:22:53;24.07;;;9.46;;
61473;SDS011;53694;49.784;30.150;2022-08-21T00:23:55;27.02;;;8.79;;
61473;SDS011;53694;49.784;30.150;2022-08-21T00:24:57;26.14;;;8.87;;
61473;SDS011;53694;49.784;30.150;2022-08-21T00:25:59;18.99;;;8.82;;
61473;SDS011;53694;49.784;30.150;2022-08-21T00:27:00;28.21;;;8.91;;
61473;SDS011;53694;49.784;30.150;2022-08-21T00:28:03;19.51;;;8.31;;
61473;SDS011;53694;49.784;30.150;2022-08-21T00:29:05;18.23;;;8.51;;
61473;SDS011;53694;49.784;30.150;2022-08-21T00:30:07;23.45;;;8.24;;
61473;SDS011;53694;49.784;30.150;2022-08-21T00:31:11;25.11;;;8.33;;
61473;SDS011;53694;49.784;30.150;2022-08-21T00:32:19;22.17;;;8.07;;
61473;SDS011;53694;49.784;30.150;2022-08-21T00:33:21;21.56;;;7.69;;
61473;SDS011;53694;49.784;30.150;2022-08-21T00:34:22;20.66;;;7.56;;
61473;SDS011;53694;49.784;30.150;2022-08-21T00:35:26;22.71;;;8.34;;
61473;SDS011;53694;49.784;30.150;2022-08-21T00:36:30;20.59;;;9.29;;
61473;SDS011;53694;49.784;30.150;2022-08-21T00:37:32;24.97;;;9.40;;
61473;SDS011;53694;49.784;30.150;2022-08-21T00:38:34;25.54;;;9.89;;
61473;SDS011;53694;49.784;30.150;2022-08-21T00:39:36;29.49;;;11.40;;
61473;SDS011;53694;49.784;30.150;2022-08-21T00:40:44;30.43;;;11.15;;
61473;SDS011;53694;49.784;30.150;2022-08-21T00:41:44;28.16;;;9.81;;
61473;SDS011;53694;49.784;30.150;2022-08-21T00:42:45;19.01;;;7.45;;
61473;SDS011;53694;49.784;30.150;2022-08-21T00:43:47;21.06;;;7.75;;
61473;SDS011;53694;49.784;30.150;2022-08-21T00:44:49;24.06;;;7.47;;
61473;SDS011;53694;49.784;30.150;2022-08-21T00:45:51;19.76;;;7.36;;
61473;SDS011;53694;49.784;30.150;2022-08-21T00:46:53;27.34;;;7.24;;
61473;SDS011;53694;49.784;30.150;2022-08-21T00:47:55;22.90;;;8.82;;
61473;SDS011;53694;49.784;30.150;2022-08-21T00:48:57;20.19;;;7.37;;
61473;SDS011;53694;49.784;30.150;2022-08-21T00:49:59;19.47;;;7.61;;
61473;SDS011;53694;49.784;30.150;2022-08-21T00:51:04;24.16;;;7.62;;
61473;SDS011;53694;49.784;30.150;2022-08-21T00:52:10;23.82;;;7.07;;
61473;SDS011;53694;49.784;30.150;2022-08-21T00:53:12;23.98;;;7.76;;
61473;SDS011;53694;49.784;30.150;2022-08-21T00:54:15;25.86;;;8.19;;
61473;SDS011;53694;49.784;30.150;2022-08-21T00:55:20;23.58;;;8.73;;
61473;SDS011;53694;49.784;30.150;2022-08-21T00:56:25;20.77;;;8.32;;
61473;SDS011;53694;49.784;30.150;2022-08-21T00:57:31;26.15;;;9.67;;
61473;SDS011;53694;49.784;30.150;2022-08-21T00:58:35;23.09;;;10.41;;
61473;SDS011;53694;49.784;30.150;2022-08-21T00:59:38;23.52;;;8.74;;
61473;SDS011;53694;49.784;30.150;2022-08-21T01:00:46;21.00;;;9.18;;
61473;SDS011;53694;49.784;30.150;2022-08-21T01:01:49;20.75;;;9.38;;
61473;SDS011;53694;49.784;30.150;2022-08-21T01:02:51;23.26;;;9.19;;
61473;SDS011;53694;49.784;30.150;2022-08-21T01:03:53;24.72;;;10.44;;
61473;SDS011;53694;49.784;30.150;2022-08-21T01:04:55;23.26;;;8.88;;
61473;SDS011;53694;49.784;30.150;2022-08-21T01:05:57;16.44;;;8.04;;
61473;SDS011;53694;49.784;30.150;2022-08-21T01:06:59;22.70;;;8.43;;
61473;SDS011;53694;49.784;30.150;2022-08-21T01:08:01;24.74;;;7.98;;
61473;SDS011;53694;49.784;30.150;2022-08-21T01:09:03;22.35;;;7.51;;
61473;SDS011;53694;49.784;30.150;2022-08-21T01:10:06;22.01;;;7.96;;
61473;SDS011;53694;49.784;30.150;2022-08-21T01:11:09;19.44;;;7.28;;
61473;SDS011;53694;49.784;30.150;2022-08-21T01:12:11;22.61;;;7.45;;
61473;SDS011;53694;49.784;30.150;2022-08-21T01:13:14;24.65;;;7.48;;
61473;SDS011;53694;49.784;30.150;2022-08-21T01:14:18;22.85;;;7.44;;
61473;SDS011;53694;49.784;30.150;2022-08-21T01:15:21;23.34;;;7.71;;
61473;SDS011;53694;49.784;30.150;2022-08-21T01:16:26;30.59;;;9.55;;
61473;SDS011;53694;49.784;30.150;2022-08-21T01:17:29;21.28;;;9.29;;
61473;SDS011;53694;49.784;30.150;2022-08-21T01:18:33;22.36;;;9.22;;
61473;SDS011;53694;49.784;30.150;2022-08-21T01:19:34;22.25;;;8.64;;
61473;SDS011;53694;49.784;30.150;2022-08-21T01:20:37;25.15;;;7.99;;
61473;SDS011;53694;49.784;30.150;2022-08-21T01:21:41;22.57;;;7.25;;
61473;SDS011;53694;49.784;30.150;2022-08-21T01:22:43;19.53;;;6.73;;
61473;SDS011;53694;49.784;30.150;2022-08-21T01:23:46;24.22;;;6.71;;
61473;SDS011;53694;49.784;30.150;2022-08-21T01:24:50;23.14;;;7.01;;
61473;SDS011;53694;49.784;30.150;2022-08-21T01:25:52;19.47;;;6.17;;
61473;SDS011;53694;49.784;30.150;2022-08-21T01:26:53;22.39;;;6.84;;
61473;SDS011;53694;49.784;30.150;2022-08-21T01:27:56;24.47;;;6.88;;
61473;SDS011;53694;49.784;30.150;2022-08-21T01:29:05;18.05;;;6.78;;
61473;SDS011;53694;49.784;30.150;2022-08-21T01:30:18;19.93;;;6.69;;
61473;SDS011;53694;49.784;30.150;2022-08-21T01:31:22;25.46;;;7.26;;
61473;SDS011;53694;49.784;30.150;2022-08-21T01:32:27;17.69;;;7.37;;
61473;SDS011;53694;49.784;30.150;2022-08-21T01:33:28;19.46;;;7.11;;
61473;SDS011;53694;49.784;30.150;2022-08-21T01:34:31;23.83;;;7.75;;
61473;SDS011;53694;49.784;30.150;2022-08-21T01:35:34;19.52;;;7.52;;
61473;SDS011;53694;49.784;30.150;2022-08-21T01:36:36;26.97;;;8.51;;
61473;SDS011;53694;49.784;30.150;2022-08-21T01:37:39;25.58;;;8.31;;
61473;SDS011;53694;49.784;30.150;2022-08-21T01:38:41;19.62;;;8.77;;
61473;SDS011;53694;49.784;30.150;2022-08-21T01:39:43;24.77;;;8.89;;
61473;SDS011;53694;49.784;30.150;2022-08-21T01:40:45;22.63;;;9.77;;
61473;SDS011;53694;49.784;30.150;2022-08-21T01:41:47;21.39;;;8.17;;
61473;SDS011;53694;49.784;30.150;2022-08-21T01:42:48;15.76;;;6.95;;
61473;SDS011;53694;49.784;30.150;2022-08-21T01:43:50;22.10;;;7.50;;
61473;SDS011;53694;49.784;30.150;2022-08-21T01:44:52;20.34;;;6.81;;
61473;SDS011;53694;49.784;30.150;2022-08-21T01:45:54;17.51;;;6.51;;
61473;SDS011;53694;49.784;30.150;2022-08-21T01:46:57;18.61;;;6.42;;
61473;SDS011;53694;49.784;30.150;2022-08-21T01:48:00;19.34;;;6.61;;
61473;SDS011;53694;49.784;30.150;2022-08-21T01:49:02;25.03;;;7.66;;
61473;SDS011;53694;49.784;30.150;2022-08-21T01:50:07;21.88;;;7.12;;
61473;SDS011;53694;49.784;30.150;2022-08-21T01:51:11;25.84;;;7.21;;
61473;SDS011;53694;49.784;30.150;2022-08-21T01:52:12;22.39;;;7.14;;
61473;SDS011;53694;49.784;30.150;2022-08-21T01:53:14;20.70;;;6.91;;
61473;SDS011;53694;49.784;30.150;2022-08-21T01:54:16;19.21;;;7.62;;
61473;SDS011;53694;49.784;30.150;2022-08-21T01:55:19;22.64;;;8.01;;
61473;SDS011;53694;49.784;30.150;2022-08-21T01:56:24;20.78;;;8.53;;
61473;SDS011;53694;49.784;30.150;2022-08-21T01:57:26;22.05;;;8.53;;
61473;SDS011;53694;49.784;30.150;2022-08-21T01:58:27;20.28;;;9.66;;
61473;SDS011;53694;49.784;30.150;2022-08-21T01:59:29;21.09;;;9.63;;
61473;SDS011;53694;49.784;30.150;2022-08-21T02:00:32;24.76;;;10.01;;
61473;SDS011;53694;49.784;30.150;2022-08-21T02:01:34;17.06;;;8.64;;
61473;SDS011;53694;49.784;30.150;2022-08-21T02:02:36;17.67;;;7.78;;
61473;SDS011;53694;49.784;30.150;2022-08-21T02:03:38;22.61;;;8.13;;
61473;SDS011;53694;49.784;30.150;2022-08-21T02:05:56;23.03;;;8.51;;
61473;SDS011;53694;49.784;30.150;2022-08-21T02:06:59;18.37;;;7.90;;
61473;SDS011;53694;49.784;30.150;2022-08-21T02:08:02;21.57;;;7.78;;
61473;SDS011;53694;49.784;30.150;2022-08-21T02:09:05;16.59;;;7.05;;
61473;SDS011;53694;49.784;30.150;2022-08-21T02:10:10;18.68;;;7.97;;
61473;SDS011;53694;49.784;30.150;2022-08-21T02:11:14;18.95;;;7.76;;
61473;SDS011;53694;49.784;30.150;2022-08-21T02:12:15;18.77;;;7.51;;
61473;SDS011;53694;49.784;30.150;2022-08-21T02:13:17;17.46;;;7.28;;
61473;SDS011;53694;49.784;30.150;2022-08-21T02:14:19;22.43;;;7.46;;
61473;SDS011;53694;49.784;30.150;2022-08-21T02:15:21;18.56;;;7.91;;
61473;SDS011;53694;49.784;30.150;2022-08-21T02:16:25;25.45;;;8.22;;
61473;SDS011;53694;49.784;30.150;2022-08-21T02:17:26;21.38;;;8.31;;
61473;SDS011;53694;49.784;30.150;2022-08-21T02:18:28;19.47;;;8.69;;
61473;SDS011;53694;49.784;30.150;2022-08-21T02:19:30;18.69;;;8.59;;
61473;SDS011;53694;49.784;30.150;2022-08-21T02:20:35;28.97;;;9.61;;
61473;SDS011;53694;49.784;30.150;2022-08-21T02:21:38;24.11;;;9.63;;
61473;SDS011;53694;49.784;30.150;2022-08-21T02:22:40;23.51;;;10.21;;
61473;SDS011;53694;49.784;30.150;2022-08-21T02:23:42;21.17;;;10.61;;
61473;SDS011;53694;49.784;30.150;2022-08-21T02:24:43;29.58;;;10.51;;
61473;SDS011;53694;49.784;30.150;2022-08-21T02:25:45;25.71;;;9.74;;
61473;SDS011;53694;49.784;30.150;2022-08-21T02:26:47;25.73;;;8.23;;
61473;SDS011;53694;49.784;30.150;2022-08-21T02:27:49;17.83;;;7.97;;
61473;SDS011;53694;49.784;30.150;2022-08-21T02:28:51;18.87;;;7.42;;
61473;SDS011;53694;49.784;30.150;2022-08-21T02:29:57;19.46;;;7.69;;
61473;SDS011;53694;49.784;30.150;2022-08-21T02:30:57;16.24;;;7.51;;
61473;SDS011;53694;49.784;30.150;2022-08-21T02:31:59;15.79;;;7.64;;
61473;SDS011;53694;49.784;30.150;2022-08-21T02:33:01;20.67;;;7.84;;
61473;SDS011;53694;49.784;30.150;2022-08-21T02:34:03;23.13;;;8.41;;
61473;SDS011;53694;49.784;30.150;2022-08-21T02:35:05;19.71;;;7.50;;
61473;SDS011;53694;49.784;30.150;2022-08-21T02:36:09;27.35;;;8.18;;
61473;SDS011;53694;49.784;30.150;2022-08-21T02:37:12;18.07;;;6.88;;
61473;SDS011;53694;49.784;30.150;2022-08-21T02:38:15;21.03;;;7.81;;
61473;SDS011;53694;49.784;30.150;2022-08-21T02:39:19;21.28;;;8.83;;
61473;SDS011;53694;49.784;30.150;2022-08-21T02:40:23;19.19;;;9.01;;
61473;SDS011;53694;49.784;30.150;2022-08-21T02:41:27;22.48;;;8.96;;
61473;SDS011;53694;49.784;30.150;2022-08-21T02:42:29;17.73;;;8.55;;
61473;SDS011;53694;49.784;30.150;2022-08-21T02:43:32;23.29;;;9.88;;
61473;SDS011;53694;49.784;30.150;2022-08-21T02:44:34;23.26;;;9.47;;
61473;SDS011;53694;49.784;30.150;2022-08-21T02:45:36;23.96;;;9.62;;
61473;SDS011;53694;49.784;30.150;2022-08-21T02:46:39;24.43;;;10.35;;
61473;SDS011;53694;49.784;30.150;2022-08-21T02:47:49;21.95;;;9.21;;
61473;SDS011;53694;49.784;30.150;2022-08-21T02:48:52;21.68;;;8.06;;
61473;SDS011;53694;49.784;30.150;2022-08-21T02:49:53;19.17;;;7.94;;
61473;SDS011;53694;49.784;30.150;2022-08-21T02:50:57;17.96;;;8.28;;
61473;SDS011;53694;49.784;30.150;2022-08-21T02:52:01;19.32;;;7.92;;
61473;SDS011;53694;49.784;30.150;2022-08-21T02:53:03;22.06;;;8.71;;
61473;SDS011;53694;49.784;30.150;2022-08-21T02:54:05;24.40;;;7.89;;
61473;SDS011;53694;49.784;30.150;2022-08-21T02:55:07;21.71;;;7.66;;
61473;SDS011;53694;49.784;30.150;2022-08-21T02:56:10;17.33;;;7.70;;
61473;SDS011;53694;49.784;30.150;2022-08-21T02:57:13;18.59;;;7.58;;
61473;SDS011;53694;49.784;30.150;2022-08-21T02:58:16;21.41;;;7.87;;
61473;SDS011;53694;49.784;30.150;2022-08-21T02:59:20;19.52;;;7.42;;
61473;SDS011;53694;49.784;30.150;2022-08-21T03:00:24;18.61;;;8.04;;
61473;SDS011;53694;49.784;30.150;2022-08-21T03:01:28;19.65;;;8.39;;
61473;SDS011;53694;49.784;30.150;2022-08-21T03:02:29;20.48;;;9.83;;
61473;SDS011;53694;49.784;30.150;2022-08-21T03:03:31;22.95;;;8.57;;
61473;SDS011;53694;49.784;30.150;2022-08-21T03:04:33;22.81;;;9.47;;
61473;SDS011;53694;49.784;30.150;2022-08-21T03:05:35;21.40;;;9.31;;
61473;SDS011;53694;49.784;30.150;2022-08-21T03:06:37;24.09;;;9.48;;
61473;SDS011;53694;49.784;30.150;2022-08-21T03:07:39;25.74;;;11.14;;
61473;SDS011;53694;49.784;30.150;2022-08-21T03:08:41;22.07;;;10.29;;
61473;SDS011;53694;49.784;30.150;2022-08-21T03:09:44;25.56;;;10.13;;
61473;SDS011;53694;49.784;30.150;2022-08-21T03:10:47;22.27;;;9.24;;
61473;SDS011;53694;49.784;30.150;2022-08-21T03:11:50;20.26;;;9.04;;
61473;SDS011;53694;49.784;30.150;2022-08-21T03:12:52;25.03;;;8.41;;
61473;SDS011;53694;49.784;30.150;2022-08-21T03:13:54;16.00;;;7.47;;
61473;SDS011;53694;49.784;30.150;2022-08-21T03:14:56;19.99;;;8.31;;
61473;SDS011;53694;49.784;30.150;2022-08-21T03:15:58;23.01;;;9.15;;
61473;SDS011;53694;49.784;30.150;2022-08-21T03:17:02;23.57;;;7.84;;
61473;SDS011;53694;49.784;30.150;2022-08-21T03:18:03;18.13;;;7.87;;
61473;SDS011;53694;49.784;30.150;2022-08-21T03:19:05;18.96;;;8.42;;
61473;SDS011;53694;49.784;30.150;2022-08-21T03:20:08;22.08;;;8.10;;
61473;SDS011;53694;49.784;30.150;2022-08-21T03:21:10;21.46;;;9.21;;
61473;SDS011;53694;49.784;30.150;2022-08-21T03:22:12;22.43;;;10.42;;
61473;SDS011;53694;49.784;30.150;2022-08-21T03:23:14;21.69;;;10.16;;
61473;SDS011;53694;49.784;30.150;2022-08-21T03:24:17;20.30;;;10.07;;
61473;SDS011;53694;49.784;30.150;2022-08-21T03:25:20;19.58;;;10.66;;
61473;SDS011;53694;49.784;30.150;2022-08-21T03:26:24;25.57;;;11.33;;
61473;SDS011;53694;49.784;30.150;2022-08-21T03:27:26;25.58;;;11.32;;
61473;SDS011;53694;49.784;30.150;2022-08-21T03:28:29;23.75;;;10.92;;
61473;SDS011;53694;49.784;30.150;2022-08-21T03:29:31;20.95;;;9.78;;
61473;SDS011;53694;49.784;30.150;2022-08-21T03:30:34;17.64;;;8.61;;
61473;SDS011;53694;49.784;30.150;2022-08-21T03:31:36;19.84;;;8.71;;
61473;SDS011;53694;49.784;30.150;2022-08-21T03:32:37;18.42;;;8.99;;
61473;SDS011;53694;49.784;30.150;2022-08-21T03:33:39;20.43;;;8.63;;
61473;SDS011;53694;49.784;30.150;2022-08-21T03:34:41;15.21;;;8.34;;
61473;SDS011;53694;49.784;30.150;2022-08-21T03:35:43;19.64;;;8.28;;
61473;SDS011;53694;49.784;30.150;2022-08-21T03:36:48;22.35;;;8.73;;
61473;SDS011;53694;49.784;30.150;2022-08-21T03:37:50;17.76;;;8.47;;
61473;SDS011;53694;49.784;30.150;2022-08-21T03:38:52;21.82;;;8.55;;
61473;SDS011;53694;49.784;30.150;2022-08-21T03:39:53;21.53;;;9.34;;
61473;SDS011;53694;49.784;30.150;2022-08-21T03:40:55;18.11;;;9.17;;
61473;SDS011;53694;49.784;30.150;2022-08-21T03:41:58;19.51;;;9.07;;
61473;SDS011;53694;49.784;30.150;2022-08-21T03:42:59;24.53;;;10.06;;
61473;SDS011;53694;49.784;30.150;2022-08-21T03:44:01;20.45;;;10.81;;
61473;SDS011;53694;49.784;30.150;2022-08-21T03:45:04;18.65;;;11.27;;
61473;SDS011;53694;49.784;30.150;2022-08-21T03:46:08;24.89;;;12.45;;
61473;SDS011;53694;49.784;30.150;2022-08-21T03:47:09;21.65;;;11.83;;
61473;SDS011;53694;49.784;30.150;2022-08-21T03:48:11;22.19;;;12.22;;
61473;SDS011;53694;49.784;30.150;2022-08-21T03:49:13;23.63;;;11.14;;
61473;SDS011;53694;49.784;30.150;2022-08-21T03:50:15;15.62;;;9.72;;
61473;SDS011;53694;49.784;30.150;2022-08-21T03:51:17;19.84;;;8.88;;
61473;SDS011;53694;49.784;30.150;2022-08-21T03:52:18;17.22;;;9.72;;
61473;SDS011;53694;49.784;30.150;2022-08-21T03:53:20;22.91;;;8.66;;
61473;SDS011;53694;49.784;30.150;2022-08-21T03:54:22;20.80;;;8.36;;
61473;SDS011;53694;49.784;30.150;2022-08-21T03:55:24;14.63;;;8.96;;
61473;SDS011;53694;49.784;30.150;2022-08-21T03:56:28;22.07;;;9.04;;
61473;SDS011;53694;49.784;30.150;2022-08-21T03:57:30;21.75;;;9.41;;
61473;SDS011;53694;49.784;30.150;2022-08-21T03:58:32;20.63;;;9.30;;
61473;SDS011;53694;49.784;30.150;2022-08-21T03:59:34;22.85;;;12.34;;
61473;SDS011;53694;49.784;30.150;2022-08-21T04:00:36;20.21;;;9.71;;
61473;SDS011;53694;49.784;30.150;2022-08-21T04:01:38;20.67;;;9.74;;
61473;SDS011;53694;49.784;30.150;2022-08-21T04:02:40;19.51;;;9.47;;
61473;SDS011;53694;49.784;30.150;2022-08-21T04:03:43;18.80;;;10.38;;
61473;SDS011;53694;49.784;30.150;2022-08-21T04:04:45;18.74;;;10.74;;
61473;SDS011;53694;49.784;30.150;2022-08-21T04:05:46;21.88;;;11.17;;
61473;SDS011;53694;49.784;30.150;2022-08-21T04:06:48;23.14;;;11.64;;
61473;SDS011;53694;49.784;30.150;2022-08-21T04:07:50;23.47;;;11.33;;
61473;SDS011;53694;49.784;30.150;2022-08-21T04:08:52;20.74;;;11.21;;
61473;SDS011;53694;49.784;30.150;2022-08-21T04:09:54;18.78;;;10.39;;
61473;SDS011;53694;49.784;30.150;2022-08-21T04:10:56;17.93;;;8.51;;
61473;SDS011;53694;49.784;30.150;2022-08-21T04:12:00;17.95;;;8.58;;
61473;SDS011;53694;49.784;30.150;2022-08-21T04:13:01;15.30;;;8.39;;
61473;SDS011;53694;49.784;30.150;2022-08-21T04:14:04;17.96;;;8.71;;
61473;SDS011;53694;49.784;30.150;2022-08-21T04:15:06;17.87;;;8.86;;
61473;SDS011;53694;49.784;30.150;2022-08-21T04:16:09;17.56;;;8.60;;
61473;SDS011;53694;49.784;30.150;2022-08-21T04:17:11;14.74;;;8.41;;
61473;SDS011;53694;49.784;30.150;2022-08-21T04:18:12;16.59;;;8.08;;
61473;SDS011;53694;49.784;30.150;2022-08-21T04:19:16;15.75;;;7.88;;
61473;SDS011;53694;49.784;30.150;2022-08-21T04:20:19;15.81;;;7.84;;
61473;SDS011;53694;49.784;30.150;2022-08-21T04:21:23;19.71;;;9.11;;
61473;SDS011;53694;49.784;30.150;2022-08-21T04:22:25;22.51;;;9.85;;
61473;SDS011;53694;49.784;30.150;2022-08-21T04:23:27;18.03;;;9.58;;
61473;SDS011;53694;49.784;30.150;2022-08-21T04:24:30;20.61;;;10.54;;
61473;SDS011;53694;49.784;30.150;2022-08-21T04:25:32;22.41;;;10.47;;
61473;SDS011;53694;49.784;30.150;2022-08-21T04:26:35;19.89;;;11.69;;
61473;SDS011;53694;49.784;30.150;2022-08-21T04:27:38;19.26;;;11.66;;
61473;SDS011;53694;49.784;30.150;2022-08-21T04:28:40;23.19;;;11.90;;
61473;SDS011;53694;49.784;30.150;2022-08-21T04:29:42;20.37;;;11.93;;
61473;SDS011;53694;49.784;30.150;2022-08-21T04:30:44;20.29;;;10.89;;
61473;SDS011;53694;49.784;30.150;2022-08-21T04:31:46;19.65;;;9.33;;
61473;SDS011;53694;49.784;30.150;2022-08-21T04:32:49;18.95;;;8.49;;
61473;SDS011;53694;49.784;30.150;2022-08-21T04:33:51;17.70;;;8.69;;
61473;SDS011;53694;49.784;30.150;2022-08-21T04:34:59;19.22;;;9.21;;
61473;SDS011;53694;49.784;30.150;2022-08-21T04:36:04;15.82;;;8.33;;
61473;SDS011;53694;49.784;30.150;2022-08-21T04:37:06;13.83;;;7.91;;
61473;SDS011;53694;49.784;30.150;2022-08-21T04:38:07;17.96;;;8.44;;
61473;SDS011;53694;49.784;30.150;2022-08-21T04:39:09;15.04;;;7.41;;
61473;SDS011;53694;49.784;30.150;2022-08-21T04:40:13;14.09;;;7.97;;
61473;SDS011;53694;49.784;30.150;2022-08-21T04:41:16;14.51;;;8.15;;
61473;SDS011;53694;49.784;30.150;2022-08-21T04:42:18;17.49;;;8.83;;
61473;SDS011;53694;49.784;30.150;2022-08-21T04:43:20;21.79;;;9.86;;
61473;SDS011;53694;49.784;30.150;2022-08-21T04:44:22;17.48;;;9.71;;
61473;SDS011;53694;49.784;30.150;2022-08-21T04:45:28;19.66;;;9.91;;
61473;SDS011;53694;49.784;30.150;2022-08-21T04:46:34;20.99;;;10.29;;
61473;SDS011;53694;49.784;30.150;2022-08-21T04:47:36;20.42;;;11.05;;
61473;SDS011;53694;49.784;30.150;2022-08-21T04:48:38;22.51;;;11.54;;
61473;SDS011;53694;49.784;30.150;2022-08-21T04:49:41;24.61;;;11.69;;
61473;SDS011;53694;49.784;30.150;2022-08-21T04:51:19;20.57;;;10.04;;
61473;SDS011;53694;49.784;30.150;2022-08-21T04:51:59;20.06;;;9.52;;
61473;SDS011;53694;49.784;30.150;2022-08-21T04:53:01;15.73;;;8.32;;
61473;SDS011;53694;49.784;30.150;2022-08-21T04:54:08;16.37;;;8.53;;
61473;SDS011;53694;49.784;30.150;2022-08-21T04:55:15;15.83;;;8.10;;
61473;SDS011;53694;49.784;30.150;2022-08-21T04:56:25;19.24;;;8.51;;
61473;SDS011;53694;49.784;30.150;2022-08-21T04:57:31;15.08;;;8.38;;
61473;SDS011;53694;49.784;30.150;2022-08-21T04:58:33;20.26;;;8.63;;
61473;SDS011;53694;49.784;30.150;2022-08-21T04:59:42;20.14;;;8.01;;
61473;SDS011;53694;49.784;30.150;2022-08-21T05:00:43;18.61;;;8.82;;
61473;SDS011;53694;49.784;30.150;2022-08-21T05:01:46;18.46;;;9.37;;
61473;SDS011;53694;49.784;30.150;2022-08-21T05:02:48;19.51;;;9.92;;
61473;SDS011;53694;49.784;30.150;2022-08-21T05:03:50;16.62;;;10.18;;
61473;SDS011;53694;49.784;30.150;2022-08-21T05:04:55;22.20;;;10.33;;
61473;SDS011;53694;49.784;30.150;2022-08-21T05:05:58;19.36;;;10.81;;
61473;SDS011;53694;49.784;30.150;2022-08-21T05:07:02;20.32;;;11.15;;
61473;SDS011;53694;49.784;30.150;2022-08-21T05:08:06;20.47;;;11.36;;
61473;SDS011;53694;49.784;30.150;2022-08-21T05:09:11;22.77;;;10.94;;
61473;SDS011;53694;49.784;30.150;2022-08-21T05:10:17;18.68;;;10.21;;
61473;SDS011;53694;49.784;30.150;2022-08-21T05:11:19;17.93;;;8.79;;
61473;SDS011;53694;49.784;30.150;2022-08-21T05:12:20;17.11;;;8.86;;
61473;SDS011;53694;49.784;30.150;2022-08-21T05:13:23;19.56;;;8.03;;
61473;SDS011;53694;49.784;30.150;2022-08-21T05:14:25;13.92;;;7.89;;
61473;SDS011;53694;49.784;30.150;2022-08-21T05:15:26;16.94;;;7.68;;
61473;SDS011;53694;49.784;30.150;2022-08-21T05:16:29;21.79;;;7.68;;
61473;SDS011;53694;49.784;30.150;2022-08-21T05:17:31;17.64;;;6.99;;
61473;SDS011;53694;49.784;30.150;2022-08-21T05:18:32;15.88;;;6.98;;
61473;SDS011;53694;49.784;30.150;2022-08-21T05:19:34;18.91;;;7.52;;
61473;SDS011;53694;49.784;30.150;2022-08-21T05:20:37;19.34;;;7.28;;
61473;SDS011;53694;49.784;30.150;2022-08-21T05:21:41;15.53;;;7.79;;
61473;SDS011;53694;49.784;30.150;2022-08-21T05:22:45;15.00;;;8.46;;
61473;SDS011;53694;49.784;30.150;2022-08-21T05:23:47;19.19;;;9.28;;
61473;SDS011;53694;49.784;30.150;2022-08-21T05:24:48;22.69;;;9.58;;
61473;SDS011;53694;49.784;30.150;2022-08-21T05:25:51;20.69;;;9.10;;
61473;SDS011;53694;49.784;30.150;2022-08-21T05:26:54;23.02;;;10.69;;
61473;SDS011;53694;49.784;30.150;2022-08-21T05:27:56;18.40;;;9.93;;
61473;SDS011;53694;49.784;30.150;2022-08-21T05:28:57;21.67;;;11.16;;
61473;SDS011;53694;49.784;30.150;2022-08-21T05:30:00;26.81;;;11.18;;
61473;SDS011;53694;49.784;30.150;2022-08-21T05:31:02;19.06;;;8.76;;
61473;SDS011;53694;49.784;30.150;2022-08-21T05:32:08;16.86;;;7.88;;
61473;SDS011;53694;49.784;30.150;2022-08-21T05:33:12;15.43;;;7.66;;
61473;SDS011;53694;49.784;30.150;2022-08-21T05:34:15;15.67;;;7.40;;
61473;SDS011;53694;49.784;30.150;2022-08-21T05:35:22;21.04;;;7.57;;
61473;SDS011;53694;49.784;30.150;2022-08-21T05:36:25;17.82;;;7.02;;
61473;SDS011;53694;49.784;30.150;2022-08-21T05:37:27;14.29;;;7.01;;
61473;SDS011;53694;49.784;30.150;2022-08-21T05:38:29;17.06;;;6.65;;
61473;SDS011;53694;49.784;30.150;2022-08-21T05:39:30;18.28;;;7.74;;
61473;SDS011;53694;49.784;30.150;2022-08-21T05:40:34;17.91;;;8.63;;
61473;SDS011;53694;49.784;30.150;2022-08-21T05:41:35;20.18;;;8.69;;
61473;SDS011;53694;49.784;30.150;2022-08-21T05:42:37;23.50;;;9.19;;
61473;SDS011;53694;49.784;30.150;2022-08-21T05:43:39;23.25;;;9.24;;
61473;SDS011;53694;49.784;30.150;2022-08-21T05:44:40;21.12;;;9.30;;
61473;SDS011;53694;49.784;30.150;2022-08-21T05:45:42;21.06;;;10.21;;
61473;SDS011;53694;49.784;30.150;2022-08-21T05:46:44;22.81;;;9.59;;
61473;SDS011;53694;49.784;30.150;2022-08-21T05:47:46;26.66;;;13.25;;
61473;SDS011;53694;49.784;30.150;2022-08-21T05:48:48;24.11;;;10.90;;
61473;SDS011;53694;49.784;30.150;2022-08-21T05:49:50;20.93;;;11.39;;
61473;SDS011;53694;49.784;30.150;2022-08-21T05:50:52;19.34;;;10.52;;
61473;SDS011;53694;49.784;30.150;2022-08-21T05:51:54;16.45;;;9.32;;
61473;SDS011;53694;49.784;30.150;2022-08-21T05:52:55;18.68;;;7.84;;
61473;SDS011;53694;49.784;30.150;2022-08-21T05:53:57;19.61;;;7.02;;
61473;SDS011;53694;49.784;30.150;2022-08-21T05:54:59;16.74;;;8.03;;
61473;SDS011;53694;49.784;30.150;2022-08-21T05:56:01;18.08;;;7.69;;
61473;SDS011;53694;49.784;30.150;2022-08-21T05:57:04;20.03;;;7.38;;
61473;SDS011;53694;49.784;30.150;2022-08-21T05:58:05;21.77;;;7.98;;
61473;SDS011;53694;49.784;30.150;2022-08-21T05:59:07;17.51;;;8.50;;
61473;SDS011;53694;49.784;30.150;2022-08-21T06:00:10;17.70;;;9.30;;
61473;SDS011;53694;49.784;30.150;2022-08-21T06:01:12;20.30;;;9.34;;
61473;SDS011;53694;49.784;30.150;2022-08-21T06:02:14;23.84;;;9.29;;
61473;SDS011;53694;49.784;30.150;2022-08-21T06:03:22;20.48;;;9.48;;
61473;SDS011;53694;49.784;30.150;2022-08-21T06:04:29;17.76;;;9.99;;
61473;SDS011;53694;49.784;30.150;2022-08-21T06:05:31;24.51;;;10.05;;
61473;SDS011;53694;49.784;30.150;2022-08-21T06:06:33;19.89;;;9.88;;
61473;SDS011;53694;49.784;30.150;2022-08-21T06:07:35;21.90;;;10.42;;